Terminal Aerodrome Forecast
Issued by NWS

Home | Current Version | Previous Version | Graphics & Text | Print | Product List | Glossary On
Versions: 1 2 3 4 5 6 7 8 9 10 11 12 13 14 15 16 17 18 19 20 21 22 23 24 25 26
000
FTUS41 KCLE 151900 AAA
TAFFDY
TAF AMD
KFDY 151955Z 1520/1618 25006KT P6SM SCT045 OVC080
      TEMPO 1520/1524 5SM -RA BR OVC045
     FM160000 31004KT 4SM -RA BR OVC020
     FM160400 33004KT 4SM BR OVC006
     FM160900 35004KT P6SM OVC015
     FM161300 35004KT P6SM SCT030=

USA.gov is the U.S. government's official web portal to all federal, state and local government web resources and services.